Time;durP1;ratioP1;P1;durP2;ratioP2;P2;SDS_P1;SDS_P2;PMS_P1;PMS_P2;Temp;Humidity;BMP_temperature;BMP_pressure;BME280_temperature;BME280_humidity;BME280_pressure;Samples;Min_cycle;Max_cycle;Signal;HPM_P1;HPM_P2
2022/10/02 00:02:24;;;;;;;3.35;3.03;;;15.80;76.60;;;;;;5025672;28;20104;-54
2022/10/02 00:05:05;;;;;;;5.20;3.30;;;15.80;76.50;;;;;;5031400;28;20029;-56
2022/10/02 00:07:55;;;;;;;5.35;3.35;;;15.70;76.60;;;;;;5032797;28;20033;-54
2022/10/02 00:10:28;;;;;;;8.82;3.28;;;15.70;76.70;;;;;;5032170;28;20045;-54
2022/10/02 00:12:57;;;;;;;4.05;2.90;;;15.70;76.80;;;;;;5032675;28;20029;-53
2022/10/02 00:15:27;;;;;;;4.70;3.28;;;15.60;76.90;;;;;;5032021;28;20021;-53
2022/10/02 00:18:03;;;;;;;5.22;3.05;;;15.60;77.10;;;;;;5031600;28;20454;-56
2022/10/02 00:20:58;;;;;;;10.13;3.20;;;15.50;77.30;;;;;;5032386;28;20088;-53
2022/10/02 00:23:38;;;;;;;5.45;3.30;;;15.50;77.70;;;;;;5032050;28;20026;-56
2022/10/02 00:26:34;;;;;;;4.55;3.20;;;15.50;77.60;;;;;;5032224;28;20030;-56
2022/10/02 00:29:23;;;;;;;8.65;3.70;;;15.50;77.70;;;;;;5030818;28;20570;-56
2022/10/02 00:32:14;;;;;;;7.35;4.57;;;15.40;77.60;;;;;;5032234;28;20117;-53
2022/10/02 00:35:05;;;;;;;4.22;3.60;;;15.40;77.90;;;;;;5030994;28;20108;-55
2022/10/02 00:37:34;;;;;;;6.35;3.50;;;15.40;77.90;;;;;;5032154;28;20044;-55
2022/10/02 00:40:02;;;;;;;4.63;3.33;;;15.30;77.90;;;;;;5030548;28;20083;-55
2022/10/02 00:42:31;;;;;;;4.95;3.13;;;15.40;78.00;;;;;;5030493;28;20038;-53
2022/10/02 00:45:15;;;;;;;5.78;2.95;;;15.40;78.00;;;;;;5030993;28;20104;-54
2022/10/02 00:48:12;;;;;;;7.60;3.35;;;15.40;77.80;;;;;;5026270;28;20030;-53
2022/10/02 00:51:05;;;;;;;6.40;2.70;;;15.40;77.60;;;;;;5014740;28;20447;-56
2022/10/02 00:53:46;;;;;;;6.07;3.40;;;15.50;77.90;;;;;;5031992;28;20036;-55
2022/10/02 00:56:37;;;;;;;11.18;3.95;;;15.40;77.50;;;;;;5031817;28;20029;-55
2022/10/02 00:59:08;;;;;;;5.13;3.33;;;15.50;77.70;;;;;;5031559;28;20496;-55
2022/10/02 01:01:43;;;;;;;5.82;3.33;;;15.40;77.70;;;;;;5031544;28;20037;-54
2022/10/02 01:04:18;;;;;;;13.30;3.80;;;15.40;78.40;;;;;;5030598;28;20602;-55
2022/10/02 01:06:44;;;;;;;4.32;3.15;;;15.40;78.20;;;;;;5030244;28;20036;-54
2022/10/02 01:09:10;;;;;;;6.88;3.38;;;15.40;78.30;;;;;;5031372;28;20025;-53
2022/10/02 01:11:37;;;;;;;8.30;3.63;;;15.40;78.10;;;;;;5031627;28;20026;-57
2022/10/02 01:14:03;;;;;;;4.82;3.55;;;15.40;78.10;;;;;;5031296;28;20071;-53
2022/10/02 01:16:30;;;;;;;8.25;3.20;;;15.40;78.10;;;;;;5031541;28;20026;-55
2022/10/02 01:18:55;;;;;;;9.45;4.03;;;15.30;77.90;;;;;;5031304;28;20138;-53
2022/10/02 01:21:41;;;;;;;4.30;3.50;;;15.20;77.70;;;;;;5031530;28;20412;-54
2022/10/02 01:24:31;;;;;;;10.18;3.95;;;15.20;78.00;;;;;;5031583;28;20124;-53
2022/10/02 01:26:57;;;;;;;5.15;3.20;;;15.10;78.40;;;;;;5031219;28;20025;-55
2022/10/02 01:29:23;;;;;;;3.83;3.00;;;15.10;78.50;;;;;;5031177;28;20026;-54
2022/10/02 01:31:49;;;;;;;6.95;3.33;;;15.10;78.90;;;;;;5030889;28;20041;-54
2022/10/02 01:34:15;;;;;;;5.82;3.20;;;15.10;78.90;;;;;;5031433;28;20121;-55
2022/10/02 01:36:40;;;;;;;7.03;4.15;;;15.10;78.90;;;;;;5031300;28;20064;-57
2022/10/02 01:39:06;;;;;;;5.88;3.78;;;15.10;79.10;;;;;;5030909;28;20044;-53
2022/10/02 01:41:40;;;;;;;9.13;4.28;;;15.10;79.20;;;;;;5031272;28;20021;-53
2022/10/02 01:44:05;;;;;;;4.75;3.58;;;15.20;79.10;;;;;;5031034;28;20055;-54
2022/10/02 01:46:38;;;;;;;4.50;3.80;;;15.20;79.10;;;;;;5031263;28;20492;-53
2022/10/02 01:49:29;;;;;;;6.15;3.47;;;15.20;79.20;;;;;;5029902;28;20038;-53
2022/10/02 01:52:18;;;;;;;7.18;3.97;;;15.20;79.50;;;;;;5030231;28;20225;-53
2022/10/02 01:55:02;;;;;;;5.20;3.65;;;15.10;79.50;;;;;;5025164;28;20078;-53
2022/10/02 01:57:55;;;;;;;6.20;3.67;;;15.10;79.40;;;;;;5020052;28;20018;-55
2022/10/02 02:00:24;;;;;;;8.30;4.07;;;15.10;79.70;;;;;;5034808;28;20033;-56
2022/10/02 02:03:29;;;;;;;6.93;3.80;;;15.10;79.40;;;;;;5035383;28;20028;-53
2022/10/02 02:06:25;;;;;;;6.28;4.07;;;15.10;79.50;;;;;;5033869;28;20057;-53
2022/10/02 02:09:04;;;;;;;5.32;3.72;;;15.10;79.60;;;;;;5020517;28;20470;-54
2022/10/02 02:11:30;;;;;;;6.60;3.85;;;15.10;79.30;;;;;;5034489;28;20048;-55
2022/10/02 02:13:58;;;;;;;5.50;4.30;;;15.10;79.20;;;;;;5033826;28;20430;-55
2022/10/02 02:16:48;;;;;;;7.88;3.40;;;15.10;79.30;;;;;;5034824;28;20029;-54
2022/10/02 02:19:49;;;;;;;7.00;3.83;;;15.10;79.10;;;;;;5034728;28;20033;-53
2022/10/02 02:22:28;;;;;;;6.13;3.80;;;15.10;79.70;;;;;;5027071;28;20631;-53
2022/10/02 02:24:56;;;;;;;7.35;3.92;;;15.10;79.40;;;;;;5033334;28;20038;-55
2022/10/02 02:27:27;;;;;;;6.15;3.60;;;15.10;79.20;;;;;;5034738;28;20124;-53
2022/10/02 02:29:59;;;;;;;9.63;3.85;;;15.10;79.20;;;;;;5033680;28;20025;-56
2022/10/02 02:32:28;;;;;;;5.25;3.90;;;15.10;79.20;;;;;;5031548;28;20032;-56
2022/10/02 02:35:01;;;;;;;5.85;3.60;;;15.10;79.20;;;;;;5035014;28;20060;-55
2022/10/02 02:37:31;;;;;;;6.47;4.10;;;15.10;79.10;;;;;;5034275;28;20057;-54
2022/10/02 02:40:02;;;;;;;6.63;3.58;;;15.10;79.10;;;;;;5034544;28;20490;-53
2022/10/02 02:42:36;;;;;;;6.50;4.07;;;15.00;79.00;;;;;;5032825;28;20108;-56
2022/10/02 02:45:21;;;;;;;5.13;3.42;;;15.00;79.00;;;;;;5034320;28;20047;-53
2022/10/02 02:47:58;;;;;;;8.80;3.85;;;15.00;79.40;;;;;;5034415;28;20052;-55
2022/10/02 02:50:39;;;;;;;5.07;3.28;;;15.00;80.10;;;;;;5033201;28;20029;-53
2022/10/02 02:53:15;;;;;;;8.45;4.03;;;15.00;79.90;;;;;;5032358;28;20029;-53
2022/10/02 02:55:52;;;;;;;5.57;3.47;;;14.90;79.80;;;;;;5033921;28;20025;-55
2022/10/02 02:58:36;;;;;;;4.30;3.20;;;14.90;79.40;;;;;;5032610;28;20021;-55
2022/10/02 03:01:02;;;;;;;4.32;3.83;;;14.90;79.50;;;;;;5031273;28;20060;-53
2022/10/02 03:03:27;;;;;;;3.95;3.55;;;14.90;79.50;;;;;;5033102;28;20076;-55
2022/10/02 03:06:02;;;;;;;12.05;3.60;;;14.90;79.60;;;;;;5033866;28;20033;-55
2022/10/02 03:08:34;;;;;;;5.70;3.97;;;14.80;79.50;;;;;;5031949;28;20037;-55
2022/10/02 03:11:31;;;;;;;7.22;3.33;;;14.90;79.60;;;;;;5032218;28;20128;-53
2022/10/02 03:14:22;;;;;;;5.03;4.30;;;14.90;80.10;;;;;;5005622;28;20041;-55
2022/10/02 03:17:17;;;;;;;8.93;3.58;;;14.80;80.00;;;;;;5033700;28;20032;-52
2022/10/02 03:20:02;;;;;;;5.10;3.85;;;14.70;80.30;;;;;;5018765;28;20037;-55
2022/10/02 03:22:45;;;;;;;9.73;4.28;;;14.70;80.20;;;;;;5033053;28;20034;-53
2022/10/02 03:25:10;;;;;;;7.32;3.78;;;14.70;80.40;;;;;;5033046;28;20029;-55
2022/10/02 03:27:40;;;;;;;5.57;4.30;;;14.70;80.20;;;;;;5032815;28;20113;-52
2022/10/02 03:30:14;;;;;;;7.95;3.70;;;14.70;80.40;;;;;;5033044;28;20528;-55
2022/10/02 03:32:44;;;;;;;5.72;4.03;;;14.70;80.50;;;;;;5033511;28;20034;-55
2022/10/02 03:35:12;;;;;;;7.05;4.15;;;14.70;80.50;;;;;;5032993;28;20017;-55
2022/10/02 03:37:48;;;;;;;;;;;14.80;80.40;;;;;;5033456;28;20025;-54
2022/10/02 03:40:14;;;;;;;6.22;4.13;;;14.70;81.00;;;;;;5033169;28;19905;-54
2022/10/02 03:42:40;;;;;;;6.95;4.50;;;14.70;80.60;;;;;;5033398;28;20033;-55
2022/10/02 03:45:06;;;;;;;10.13;4.60;;;14.80;80.60;;;;;;5033493;28;20033;-55
2022/10/02 03:47:32;;;;;;;8.65;4.93;;;14.80;80.50;;;;;;5017456;28;20029;-52
2022/10/02 03:49:58;;;;;;;6.80;3.67;;;14.80;80.70;;;;;;5012039;28;20030;-52
2022/10/02 03:52:24;;;;;;;6.53;4.00;;;14.70;80.70;;;;;;5013432;28;20029;-55
2022/10/02 03:54:55;;;;;;;6.38;4.18;;;14.70;80.70;;;;;;5012154;28;20105;-53
2022/10/02 03:57:24;;;;;;;7.93;4.57;;;14.80;80.70;;;;;;5012180;28;20022;-53
2022/10/02 03:59:58;;;;;;;8.88;4.95;;;14.80;80.60;;;;;;5013113;28;20105;-54
2022/10/02 04:02:36;;;;;;;8.93;4.30;;;14.80;80.80;;;;;;5012864;28;20496;-55
2022/10/02 04:05:23;;;;;;;;;;;14.80;80.90;;;;;;5013772;28;20037;-55
2022/10/02 04:07:55;;;;;;;4.60;4.03;;;14.80;81.00;;;;;;5013277;28;19906;-54
2022/10/02 04:10:43;;;;;;;7.13;5.28;;;14.80;80.90;;;;;;5012929;28;20026;-54
2022/10/02 04:13:31;;;;;;;10.55;4.20;;;14.90;81.00;;;;;;5013150;28;20084;-55
2022/10/02 04:16:16;;;;;;;6.20;5.35;;;15.00;80.60;;;;;;5012071;28;20073;-55
2022/10/02 04:18:52;;;;;;;14.48;4.88;;;14.90;80.40;;;;;;5012387;28;20041;-54
2022/10/02 04:21:42;;;;;;;12.88;4.65;;;14.80;80.40;;;;;;5012999;28;20392;-53
2022/10/02 04:24:19;;;;;;;8.48;5.03;;;14.90;80.70;;;;;;5029203;28;20087;-55
2022/10/02 04:27:16;;;;;;;9.73;5.00;;;14.90;80.60;;;;;;5032526;28;20029;-55
2022/10/02 04:29:52;;;;;;;5.90;4.40;;;15.00;80.80;;;;;;5015682;28;20041;-53
2022/10/02 04:32:28;;;;;;;14.07;4.93;;;15.00;80.50;;;;;;5032327;28;20687;-53
2022/10/02 04:34:54;;;;;;;8.27;5.47;;;15.00;80.60;;;;;;5032598;28;20030;-53
2022/10/02 04:37:35;;;;;;;10.30;5.05;;;15.00;80.70;;;;;;5032408;28;20108;-54
2022/10/02 04:40:31;;;;;;;7.80;4.65;;;15.00;80.80;;;;;;5032269;28;20498;-54
2022/10/02 04:43:18;;;;;;;7.93;4.50;;;15.00;80.80;;;;;;5032487;28;20017;-53
2022/10/02 04:45:44;;;;;;;5.65;4.13;;;15.00;80.60;;;;;;5032184;28;20026;-56
2022/10/02 04:48:24;;;;;;;8.80;4.88;;;15.00;80.50;;;;;;5030820;28;20403;-53
2022/10/02 04:51:48;;;;;;;7.68;4.53;;;15.00;80.50;;;;;;5032068;28;20084;-50
2022/10/02 04:54:41;;;;;;;8.63;4.82;;;15.10;80.50;;;;;;5013990;28;20029;-53
2022/10/02 04:57:10;;;;;;;11.10;4.85;;;15.00;80.50;;;;;;5031560;28;20079;-51
2022/10/02 05:00:02;;;;;;;6.57;4.68;;;15.00;80.50;;;;;;5030641;28;20113;-50
2022/10/02 05:02:34;;;;;;;7.88;4.45;;;15.00;80.80;;;;;;5022441;28;20025;-50
2022/10/02 05:05:40;;;;;;;7.22;5.03;;;15.00;81.00;;;;;;5032126;28;20022;-55
2022/10/02 05:08:34;;;;;;;8.88;4.90;;;15.00;81.20;;;;;;5031820;28;20034;-52
2022/10/02 05:11:17;;;;;;;8.30;4.03;;;15.00;81.20;;;;;;5031906;28;20022;-55
2022/10/02 05:14:14;;;;;;;7.53;5.20;;;15.00;81.40;;;;;;5031855;28;20056;-54
2022/10/02 05:16:48;;;;;;;7.15;4.55;;;15.10;81.20;;;;;;5031923;28;20443;-55
2022/10/02 05:19:52;;;;;;;6.10;4.70;;;15.10;81.10;;;;;;5031812;28;20030;-54
2022/10/02 05:22:32;;;;;;;5.72;4.03;;;15.20;81.10;;;;;;5030263;28;20025;-54
2022/10/02 05:25:29;;;;;;;8.30;4.70;;;15.20;80.70;;;;;;5012150;28;20037;-54
2022/10/02 05:28:16;;;;;;;10.40;4.85;;;15.10;80.70;;;;;;5012071;28;20025;-52
2022/10/02 05:31:02;;;;;;;5.47;3.63;;;15.10;81.10;;;;;;5011496;28;20091;-53
2022/10/02 05:33:37;;;;;;;8.15;4.10;;;15.00;81.20;;;;;;5030611;28;20056;-51
2022/10/02 05:36:18;;;;;;;11.15;4.45;;;15.00;81.30;;;;;;5031489;28;20068;-51
2022/10/02 05:38:59;;;;;;;9.23;4.05;;;15.00;81.50;;;;;;5030321;28;20051;-50
2022/10/02 05:41:30;;;;;;;7.90;3.95;;;15.00;81.40;;;;;;5031368;28;20104;-54
2022/10/02 05:44:34;;;;;;;6.10;4.10;;;14.90;81.30;;;;;;5030640;28;20052;-51
2022/10/02 05:47:18;;;;;;;7.18;4.15;;;14.90;81.50;;;;;;5031361;28;20032;-53
2022/10/02 05:49:59;;;;;;;8.77;4.30;;;15.00;81.70;;;;;;5031097;28;20025;-52
2022/10/02 05:52:52;;;;;;;9.23;4.28;;;15.00;81.40;;;;;;5031036;28;20025;-51
2022/10/02 05:55:17;;;;;;;6.65;4.85;;;14.90;81.50;;;;;;5027050;28;20036;-51
2022/10/02 05:57:52;;;;;;;7.80;4.13;;;14.90;81.50;;;;;;5030772;28;20022;-52
2022/10/02 06:00:31;;;;;;;5.43;4.72;;;14.90;81.50;;;;;;5029671;28;20033;-52
2022/10/02 06:03:15;;;;;;;7.40;4.93;;;15.00;81.70;;;;;;5030940;28;20025;-52
2022/10/02 06:06:15;;;;;;;12.60;4.57;;;15.00;81.80;;;;;;5027292;28;20071;-53
2022/10/02 06:09:09;;;;;;;4.82;3.80;;;15.10;81.80;;;;;;5029964;28;20021;-54
2022/10/02 06:11:41;;;;;;;7.35;4.40;;;15.20;81.80;;;;;;5029800;28;20469;-53
2022/10/02 06:14:15;;;;;;;4.57;4.15;;;15.20;81.50;;;;;;5031190;28;20018;-54
2022/10/02 06:17:03;;;;;;;9.02;4.30;;;15.20;81.50;;;;;;5031185;28;20029;-56
2022/10/02 06:19:49;;;;;;;6.85;4.00;;;15.30;81.80;;;;;;5030276;28;20084;-53
2022/10/02 06:22:19;;;;;;;7.35;4.63;;;15.30;82.00;;;;;;4986711;28;20416;-55
2022/10/02 06:25:12;;;;;;;4.32;3.35;;;15.40;82.20;;;;;;5031090;28;20099;-55
2022/10/02 06:27:45;;;;;;;4.75;3.75;;;15.40;82.10;;;;;;5029989;28;20484;-56
2022/10/02 06:30:16;;;;;;;11.88;4.40;;;15.50;82.00;;;;;;5030604;28;20073;-55
2022/10/02 06:32:59;;;;;;;9.18;3.58;;;15.50;82.10;;;;;;5029528;28;20033;-54
2022/10/02 06:35:32;;;;;;;7.80;3.63;;;15.60;82.10;;;;;;5029457;28;20108;-56
2022/10/02 06:38:25;;;;;;;5.00;3.30;;;15.60;82.00;;;;;;5021400;28;20277;-54
2022/10/02 06:41:10;;;;;;;6.00;3.70;;;15.70;82.20;;;;;;5029182;28;20029;-56
2022/10/02 06:44:16;;;;;;;6.30;3.88;;;15.70;82.00;;;;;;5032582;28;20034;-54
2022/10/02 06:47:03;;;;;;;5.30;3.20;;;15.80;81.80;;;;;;5027274;28;20510;-55
2022/10/02 06:49:45;;;;;;;7.25;4.25;;;15.90;82.00;;;;;;5033467;28;20037;-53
2022/10/02 06:52:25;;;;;;;6.40;3.10;;;16.00;82.10;;;;;;5033623;28;20446;-54
2022/10/02 06:55:23;;;;;;;3.88;3.47;;;16.00;82.10;;;;;;5034266;28;20395;-53
2022/10/02 06:58:17;;;;;;;6.97;3.33;;;16.00;81.80;;;;;;5033494;28;20071;-55
2022/10/02 07:01:24;;;;;;;4.47;2.90;;;16.00;82.10;;;;;;5033106;28;20124;-54
2022/10/02 07:04:21;;;;;;;9.55;3.67;;;16.00;81.70;;;;;;5032740;28;20153;-53
2022/10/02 07:07:24;;;;;;;8.18;3.15;;;16.00;81.80;;;;;;5032975;28;20049;-54
2022/10/02 07:09:52;;;;;;;6.90;3.60;;;16.00;82.10;;;;;;5033075;28;20029;-53
2022/10/02 07:12:49;;;;;;;8.85;3.28;;;16.00;82.20;;;;;;5033315;28;20040;-53
2022/10/02 07:15:31;;;;;;;7.65;3.13;;;16.00;82.60;;;;;;5032567;28;20030;-53
2022/10/02 07:18:21;;;;;;;4.25;2.83;;;16.00;81.90;;;;;;5033996;28;20021;-53
2022/10/02 07:21:13;;;;;;;6.78;3.22;;;16.10;81.90;;;;;;5033295;28;20036;-54
2022/10/02 07:23:43;;;;;;;6.70;3.40;;;16.10;81.80;;;;;;5008268;28;20033;-52
2022/10/02 07:26:27;;;;;;;5.30;3.60;;;16.20;81.80;;;;;;5033547;28;20025;-53
2022/10/02 07:29:19;;;;;;;4.72;2.72;;;16.20;81.60;;;;;;5032889;28;20030;-52
2022/10/02 07:31:53;;;;;;;4.35;3.05;;;16.30;82.00;;;;;;5033608;28;20037;-53
2022/10/02 07:34:40;;;;;;;5.80;3.47;;;16.40;81.90;;;;;;5033131;28;20542;-52
2022/10/02 07:37:36;;;;;;;8.63;3.65;;;16.50;81.60;;;;;;5033380;28;20037;-54
2022/10/02 07:40:29;;;;;;;7.97;3.70;;;16.60;81.60;;;;;;5022861;28;20022;-54
2022/10/02 07:43:16;;;;;;;10.80;3.67;;;16.70;81.10;;;;;;5032351;28;20053;-54
2022/10/02 07:46:02;;;;;;;9.77;3.70;;;16.70;80.70;;;;;;5013760;28;20492;-52
2022/10/02 07:48:48;;;;;;;6.90;3.17;;;16.70;80.80;;;;;;5013773;28;20440;-53
2022/10/02 07:54:32;;;;;;;6.60;3.70;;;16.70;80.80;;;;;;5023827;28;20095;-55
2022/10/02 07:57:12;;;;;;;9.63;3.95;;;16.60;81.00;;;;;;5033455;28;20049;-52
2022/10/02 07:59:42;;;;;;;6.43;4.00;;;16.70;81.30;;;;;;5031728;28;20464;-51
2022/10/02 08:02:23;;;;;;;7.57;4.28;;;16.90;81.10;;;;;;5032133;28;20120;-51
2022/10/02 08:05:04;;;;;;;11.40;4.75;;;17.00;80.80;;;;;;5017657;28;20468;-51
2022/10/02 08:07:30;;;;;;;6.97;3.83;;;17.00;80.20;;;;;;5012138;28;20022;-52
2022/10/02 08:10:01;;;;;;;9.07;4.10;;;17.10;80.00;;;;;;5018048;28;20044;-51
2022/10/02 08:12:38;;;;;;;9.80;4.20;;;17.20;80.00;;;;;;5032357;28;20049;-53
2022/10/02 08:15:12;;;;;;;8.33;3.93;;;17.20;80.00;;;;;;5032269;28;20392;-54
2022/10/02 08:17:51;;;;;;;6.75;4.22;;;17.30;79.70;;;;;;5032966;28;20041;-52
2022/10/02 08:20:30;;;;;;;10.13;4.07;;;17.50;79.60;;;;;;5031312;28;20064;-52
2022/10/02 08:23:01;;;;;;;7.68;4.32;;;17.50;78.90;;;;;;5032799;28;20097;-50
2022/10/02 08:25:37;;;;;;;14.85;4.28;;;17.60;78.40;;;;;;5032703;28;20033;-52
2022/10/02 08:28:29;;;;;;;8.50;4.30;;;17.60;77.90;;;;;;5032916;28;20028;-52
2022/10/02 08:30:56;;;;;;;11.32;4.45;;;17.60;77.60;;;;;;5030018;28;20037;-50
2022/10/02 08:33:22;;;;;;;7.75;4.80;;;17.60;77.60;;;;;;5058168;23;20037;-61
2022/10/02 08:36:19;;;;;;;7.55;3.33;;;17.50;77.60;;;;;;5050216;28;20025;-59
2022/10/02 08:38:59;;;;;;;7.72;4.40;;;17.60;77.80;;;;;;5051986;28;20025;-59
2022/10/02 08:41:46;;;;;;;6.75;4.03;;;17.60;78.20;;;;;;5051108;28;20108;-60
2022/10/02 08:44:31;;;;;;;5.90;3.55;;;17.80;77.70;;;;;;5049823;28;20033;-60
2022/10/02 08:47:12;;;;;;;10.57;4.82;;;17.80;77.00;;;;;;5052289;28;20036;-60
2022/10/02 08:49:53;;;;;;;8.38;4.45;;;17.80;77.50;;;;;;5050777;28;20041;-62
2022/10/02 08:52:43;;;;;;;10.88;5.20;;;17.90;77.70;;;;;;5052028;28;20052;-62
2022/10/02 08:55:32;;;;;;;11.07;3.95;;;18.00;77.20;;;;;;5052050;28;20028;-62
2022/10/02 08:58:13;;;;;;;7.68;4.50;;;18.10;76.70;;;;;;5014467;28;20571;-62
2022/10/02 09:01:16;;;;;;;6.38;4.80;;;18.20;76.30;;;;;;5052023;28;20029;-62
2022/10/02 09:04:03;;;;;;;6.90;4.20;;;18.30;76.10;;;;;;5010800;28;20048;-62
2022/10/02 09:07:03;;;;;;;10.80;4.22;;;18.40;76.30;;;;;;5051340;28;20037;-62
2022/10/02 09:09:56;;;;;;;7.63;3.97;;;18.50;75.50;;;;;;5025732;28;20045;-62
2022/10/02 09:12:57;;;;;;;8.80;4.05;;;18.60;75.90;;;;;;5050206;28;20025;-61
2022/10/02 09:16:03;;;;;;;11.93;4.65;;;18.60;75.00;;;;;;5049277;28;20055;-61
2022/10/02 09:19:04;;;;;;;6.97;4.10;;;18.60;75.10;;;;;;5022794;28;20035;-61
2022/10/02 09:21:38;;;;;;;10.35;4.40;;;18.70;76.60;;;;;;5052130;28;20096;-61
2022/10/02 09:24:29;;;;;;;7.75;4.50;;;18.70;75.40;;;;;;5051569;28;20029;-60
2022/10/02 09:27:38;;;;;;;5.40;4.30;;;18.70;74.50;;;;;;5051453;28;20021;-61
2022/10/02 09:30:40;;;;;;;6.00;4.10;;;18.80;75.10;;;;;;5051241;28;20025;-61
2022/10/02 09:33:40;;;;;;;10.57;4.75;;;18.90;74.10;;;;;;5051379;28;20067;-62
2022/10/02 09:36:08;;;;;;;12.93;5.10;;;18.90;73.00;;;;;;5050160;28;20033;-61
2022/10/02 09:38:56;;;;;;;7.35;4.20;;;18.80;73.80;;;;;;5051129;28;20487;-61
2022/10/02 09:41:51;;;;;;;7.68;4.85;;;18.90;73.20;;;;;;5051314;28;20112;-61
2022/10/02 09:44:47;;;;;;;6.85;4.70;;;19.00;74.60;;;;;;4980110;28;20042;-61
2022/10/02 09:47:41;;;;;;;11.30;5.20;;;19.00;73.60;;;;;;5051348;28;20391;-61
2022/10/02 09:50:26;;;;;;;9.98;4.75;;;19.10;74.00;;;;;;5049915;28;20035;-61
2022/10/02 09:53:06;;;;;;;7.55;4.35;;;19.20;74.00;;;;;;5051230;28;20047;-62
2022/10/02 09:55:35;;;;;;;7.38;4.65;;;19.30;72.10;;;;;;5049831;28;20029;-61
2022/10/02 09:58:31;;;;;;;10.25;5.00;;;19.40;73.00;;;;;;5051058;28;20029;-61
2022/10/02 10:01:25;;;;;;;8.85;4.60;;;19.50;73.00;;;;;;5051231;28;20049;-58
2022/10/02 10:04:31;;;;;;;8.13;5.13;;;19.60;72.40;;;;;;5051376;28;20033;-59
2022/10/02 10:07:22;;;;;;;7.55;4.63;;;19.70;72.60;;;;;;5015583;28;20116;-58
2022/10/02 10:10:19;;;;;;;6.55;4.38;;;19.70;72.10;;;;;;5049712;28;20033;-59
2022/10/02 10:13:21;;;;;;;7.82;5.03;;;19.80;71.00;;;;;;5051204;28;20052;-58
2022/10/02 10:16:10;;;;;;;10.90;5.53;;;19.90;70.70;;;;;;5051663;28;20110;-58
2022/10/02 10:19:13;;;;;;;10.02;4.05;;;19.90;70.60;;;;;;5054937;28;20021;-59
2022/10/02 10:22:03;;;;;;;8.38;4.35;;;20.00;69.90;;;;;;5055069;28;20044;-58
2022/10/02 10:25:02;;;;;;;8.75;4.85;;;20.00;70.10;;;;;;5044881;28;20052;-55
2022/10/02 10:27:43;;;;;;;6.03;4.45;;;20.00;69.90;;;;;;5033897;28;20076;-55
2022/10/02 10:30:21;;;;;;;6.75;4.22;;;20.00;70.00;;;;;;5048736;28;20498;-54
2022/10/02 10:33:07;;;;;;;;;;;20.20;68.70;;;;;;5047737;28;20036;-57
2022/10/02 10:38:30;;;;;;;8.40;4.28;;;20.20;68.90;;;;;;5037820;28;19920;-58
2022/10/02 10:39:25;;;;;;;7.35;3.83;;;20.20;69.70;;;;;;5045975;28;20034;-58
2022/10/02 10:42:24;;;;;;;8.05;4.57;;;20.40;68.10;;;;;;5047001;28;20036;-57
2022/10/02 10:45:17;;;;;;;10.77;6.50;;;20.50;68.80;;;;;;5046657;28;20120;-56
2022/10/02 10:48:05;;;;;;;7.28;5.30;;;20.60;68.10;;;;;;5043684;28;20065;-58
2022/10/02 10:50:59;;;;;;;5.93;4.80;;;20.60;68.80;;;;;;5042257;28;20384;-56
2022/10/02 10:53:56;;;;;;;8.32;5.10;;;20.70;68.70;;;;;;5053635;28;20017;-58
2022/10/02 10:56:44;;;;;;;7.00;4.80;;;20.80;67.40;;;;;;5057132;28;20033;-56
2022/10/02 10:59:41;;;;;;;6.95;5.28;;;20.90;66.30;;;;;;5046438;28;20024;-57
2022/10/02 11:02:44;;;;;;;13.00;6.20;;;20.90;66.30;;;;;;5074331;28;20478;-53
2022/10/02 11:05:34;;;;;;;6.05;4.50;;;20.80;65.70;;;;;;5054261;28;20059;-56
2022/10/02 11:08:18;;;;;;;23.23;16.05;;;20.80;66.30;;;;;;5052483;28;20041;-55
2022/10/02 11:11:13;;;;;;;26.95;20.98;;;20.90;67.30;;;;;;5052584;28;20076;-51
2022/10/02 11:13:53;;;;;;;6.10;4.40;;;21.00;66.00;;;;;;5054049;28;20471;-57
2022/10/02 11:17:02;;;;;;;8.82;5.30;;;21.10;64.60;;;;;;5053987;28;20017;-55
2022/10/02 11:19:52;;;;;;;8.60;4.30;;;21.20;64.40;;;;;;5036528;28;20595;-56
2022/10/02 11:22:21;;;;;;;6.80;4.30;;;21.30;64.70;;;;;;5034482;28;20036;-59
2022/10/02 11:25:08;;;;;;;6.95;5.38;;;21.40;64.90;;;;;;5049041;28;20107;-62
2022/10/02 11:27:46;;;;;;;7.70;4.50;;;21.50;65.20;;;;;;5048232;28;20415;-60
2022/10/02 11:30:19;;;;;;;;;;;21.50;65.10;;;;;;5043121;28;20268;-61
2022/10/02 11:33:10;;;;;;;10.55;4.35;;;21.60;63.50;;;;;;5053861;28;19905;-61
2022/10/02 11:36:07;;;;;;;6.10;4.55;;;21.60;63.10;;;;;;5037616;28;20068;-61
2022/10/02 11:38:54;;;;;;;5.15;3.92;;;21.60;64.30;;;;;;5041638;28;20103;-61
2022/10/02 11:41:24;;;;;;;7.67;4.03;;;21.60;61.50;;;;;;5044450;28;20040;-61
2022/10/02 11:43:58;;;;;;;5.72;4.40;;;21.70;62.80;;;;;;5039426;28;20064;-62
2022/10/02 11:46:51;;;;;;;7.95;4.78;;;21.90;63.00;;;;;;5040088;28;20018;-62
2022/10/02 11:49:29;;;;;;;8.68;4.43;;;22.00;62.40;;;;;;5033243;28;20399;-61
2022/10/02 11:52:09;;;;;;;7.07;4.57;;;22.10;61.20;;;;;;5041471;28;20032;-62
2022/10/02 11:54:47;;;;;;;6.90;4.28;;;22.10;60.30;;;;;;5053293;28;20074;-62
2022/10/02 11:57:46;;;;;;;;;;;22.10;61.30;;;;;;5042465;28;20087;-61
2022/10/02 12:00:42;;;;;;;6.20;3.67;;;22.10;61.80;;;;;;5017428;28;20395;-62
2022/10/02 12:03:16;;;;;;;6.20;3.90;;;22.10;60.00;;;;;;5031946;28;20014;-62
2022/10/02 12:06:03;;;;;;;6.50;4.10;;;22.20;61.00;;;;;;5031892;28;20072;-61
2022/10/02 12:09:00;;;;;;;6.18;4.28;;;22.30;60.70;;;;;;5035832;28;20051;-62
2022/10/02 12:11:32;;;;;;;7.53;3.88;;;22.40;59.40;;;;;;5051659;28;20446;-62
2022/10/02 12:14:16;;;;;;;7.03;3.80;;;22.50;61.10;;;;;;5051517;28;20029;-61
2022/10/02 12:17:03;;;;;;;7.13;3.95;;;22.60;61.80;;;;;;5049933;28;20040;-61
2022/10/02 12:19:35;;;;;;;7.60;4.22;;;22.70;60.10;;;;;;5044709;28;20100;-62
2022/10/02 12:28:43;;;;;;;5.20;3.60;;;22.90;59.00;;;;;;5032789;28;20072;-60
2022/10/02 12:31:35;;;;;;;8.40;4.35;;;23.10;60.00;;;;;;5032687;28;20053;-62
2022/10/02 12:34:26;;;;;;;5.88;4.13;;;23.30;58.10;;;;;;5026940;28;20036;-61
2022/10/02 12:37:05;;;;;;;6.47;4.15;;;23.40;57.80;;;;;;5031181;28;20029;-62
2022/10/02 12:39:42;;;;;;;6.15;3.72;;;23.60;58.00;;;;;;5037404;28;20025;-61
2022/10/02 12:42:25;;;;;;;5.22;3.50;;;23.70;57.90;;;;;;5052656;28;20032;-61
2022/10/02 12:45:22;;;;;;;7.00;3.45;;;23.90;55.70;;;;;;5052017;28;20435;-61
2022/10/02 12:48:06;;;;;;;7.68;4.07;;;24.10;56.30;;;;;;5051402;28;20040;-62
2022/10/02 12:51:04;;;;;;;6.15;3.67;;;24.60;56.50;;;;;;5035920;28;20037;-62
2022/10/02 12:54:06;;;;;;;6.15;3.85;;;25.20;53.00;;;;;;5036032;28;20439;-62
2022/10/02 12:56:53;;;;;;;105.88;94.97;;;25.60;51.90;;;;;;5037005;28;20028;-61
2022/10/02 12:59:54;;;;;;;15.52;9.90;;;25.80;53.10;;;;;;5040987;28;20033;-60
2022/10/02 13:02:51;;;;;;;7.53;3.38;;;26.40;51.70;;;;;;5041135;28;20080;-59
2022/10/02 13:06:00;;;;;;;8.88;3.53;;;26.80;50.40;;;;;;5045746;28;20440;-62
2022/10/02 13:08:41;;;;;;;6.68;3.28;;;27.00;49.20;;;;;;5048974;28;20040;-62
2022/10/02 13:11:10;;;;;;;5.70;3.30;;;27.10;50.10;;;;;;5035291;28;20713;-62
2022/10/02 13:13:57;;;;;;;6.10;3.42;;;27.00;50.20;;;;;;5051759;28;20025;-62
2022/10/02 13:17:09;;;;;;;8.30;4.38;;;27.00;48.00;;;;;;5030565;28;20018;-61
2022/10/02 13:19:56;;;;;;;8.18;3.65;;;26.60;49.70;;;;;;5030435;28;20029;-61
2022/10/02 13:22:35;;;;;;;6.57;3.67;;;26.40;48.90;;;;;;5031764;28;20049;-62
2022/10/02 13:25:36;;;;;;;5.95;3.70;;;26.30;50.60;;;;;;5040001;28;20094;-62
2022/10/02 13:28:27;;;;;;;4.72;2.72;;;26.30;50.70;;;;;;5051551;28;20024;-62
2022/10/02 13:31:20;;;;;;;6.18;3.35;;;26.30;50.30;;;;;;5031518;28;20511;-61
2022/10/02 13:34:18;;;;;;;6.65;2.65;;;26.60;50.40;;;;;;5033651;28;20025;-62
2022/10/02 13:36:51;;;;;;;5.32;3.00;;;27.10;49.10;;;;;;5033429;28;20480;-62
2022/10/02 13:39:41;;;;;;;6.07;3.65;;;27.60;48.50;;;;;;5031517;28;20018;-62
2022/10/02 13:42:29;;;;;;;6.10;3.33;;;28.10;47.50;;;;;;5030159;28;20040;-63
2022/10/02 13:45:29;;;;;;;4.82;3.13;;;29.40;45.00;;;;;;5032567;28;20056;-63
2022/10/02 13:48:08;;;;;;;4.57;2.40;;;30.00;43.50;;;;;;5037783;28;20052;-63
2022/10/02 13:50:51;;;;;;;6.40;2.80;;;31.00;42.40;;;;;;5033962;28;20033;-63
2022/10/02 14:07:19;;;;;;;6.85;3.38;;;36.60;32.60;;;;;;5046327;28;20040;-62
2022/10/02 14:09:55;;;;;;;8.80;3.40;;;;;;;;;;5043123;28;20030;-62
2022/10/02 14:12:46;;;;;;;6.35;2.90;;;35.80;33.60;;;;;;5047810;28;20103;-64
2022/10/02 14:15:20;;;;;;;7.30;6.47;;;35.70;33.20;;;;;;5043604;28;20025;-61
2022/10/02 14:18:17;;;;;;;6.53;2.85;;;35.90;32.50;;;;;;5048044;28;20368;-61
2022/10/02 14:21:12;;;;;;;5.10;3.05;;;35.80;32.80;;;;;;5037700;28;20117;-61
2022/10/02 14:24:21;;;;;;;5.68;3.17;;;36.10;32.90;;;;;;5033987;28;20090;-61
2022/10/02 14:27:07;;;;;;;6.72;3.03;;;35.40;33.10;;;;;;5035081;28;20029;-61
2022/10/02 14:29:58;;;;;;;5.50;3.08;;;35.30;33.60;;;;;;5033393;28;20034;-61
2022/10/02 14:32:56;;;;;;;7.68;2.83;;;34.50;33.30;;;;;;5033800;28;20030;-63
2022/10/02 14:45:20;;;;;;;40.78;24.42;;;37.20;32.80;;;;;;5046968;28;20035;-56
2022/10/02 14:47:58;;;;;;;8.05;3.22;;;37.80;32.60;;;;;;5042184;28;20032;-57